Terminal Aerodrome Forecast
Issued by NWS Nashville, TN

Home | Current Version | Previous Version | Text Only | Print | Product List | Glossary On
Versions: 1 2 3 4 5 6 7 8 9 10 11 12 13
368
FTUS44 KOHX 221120
TAFCSV
TAF
KCSV 221120Z 2212/2312 14005KT P6SM SCT070 BKN200
     FM221500 13008KT 4SM -SHRA OVC050
     FM222000 12010G15KT 4SM SHRA OVC025
     FM230000 11012G18KT 3SM SHRA OVC025
     FM230600 11015G23KT 2SM SHRA OVC015=

USA.gov is the U.S. government's official web portal to all federal, state and local government web resources and services.